sensor_id;sensor_type;location;lat;lon;timestamp;P1;durP1;ratioP1;P2;durP2;ratioP2
38053;SDS011;23859;50.672;7.164;2023-04-24T00:00:16;0.73;;;0.73;;
38053;SDS011;23859;50.672;7.164;2023-04-24T00:02:43;0.30;;;0.30;;
38053;SDS011;23859;50.672;7.164;2023-04-24T00:05:12;0.40;;;0.40;;
38053;SDS011;23859;50.672;7.164;2023-04-24T00:07:39;1.17;;;0.70;;
38053;SDS011;23859;50.672;7.164;2023-04-24T00:10:06;2.75;;;0.73;;
38053;SDS011;23859;50.672;7.164;2023-04-24T00:12:33;0.75;;;0.73;;
38053;SDS011;23859;50.672;7.164;2023-04-24T00:14:59;1.63;;;0.65;;
38053;SDS011;23859;50.672;7.164;2023-04-24T00:17:26;1.83;;;0.82;;
38053;SDS011;23859;50.672;7.164;2023-04-24T00:19:52;1.15;;;0.68;;
38053;SDS011;23859;50.672;7.164;2023-04-24T00:22:26;0.50;;;0.50;;
38053;SDS011;23859;50.672;7.164;2023-04-24T00:24:53;1.38;;;0.73;;
38053;SDS011;23859;50.672;7.164;2023-04-24T00:27:19;1.17;;;0.60;;
38053;SDS011;23859;50.672;7.164;2023-04-24T00:29:45;0.93;;;0.50;;
38053;SDS011;23859;50.672;7.164;2023-04-24T00:32:12;0.45;;;0.45;;
38053;SDS011;23859;50.672;7.164;2023-04-24T00:34:38;0.95;;;0.40;;
38053;SDS011;23859;50.672;7.164;2023-04-24T00:37:05;2.22;;;0.50;;
38053;SDS011;23859;50.672;7.164;2023-04-24T00:39:31;0.50;;;0.50;;
38053;SDS011;23859;50.672;7.164;2023-04-24T00:41:57;1.92;;;0.60;;
38053;SDS011;23859;50.672;7.164;2023-04-24T00:44:24;0.40;;;0.40;;
38053;SDS011;23859;50.672;7.164;2023-04-24T00:46:50;1.05;;;0.73;;
38053;SDS011;23859;50.672;7.164;2023-04-24T00:49:17;0.60;;;0.60;;
38053;SDS011;23859;50.672;7.164;2023-04-24T00:51:43;0.40;;;0.40;;
38053;SDS011;23859;50.672;7.164;2023-04-24T00:54:10;3.92;;;0.77;;
38053;SDS011;23859;50.672;7.164;2023-04-24T00:56:37;0.70;;;0.70;;
38053;SDS011;23859;50.672;7.164;2023-04-24T00:59:04;0.50;;;0.50;;
38053;SDS011;23859;50.672;7.164;2023-04-24T01:01:31;0.57;;;0.57;;
38053;SDS011;23859;50.672;7.164;2023-04-24T01:03:57;1.33;;;0.75;;
38053;SDS011;23859;50.672;7.164;2023-04-24T01:06:23;2.67;;;0.47;;
38053;SDS011;23859;50.672;7.164;2023-04-24T01:08:59;1.40;;;0.47;;
38053;SDS011;23859;50.672;7.164;2023-04-24T01:11:25;0.40;;;0.40;;
38053;SDS011;23859;50.672;7.164;2023-04-24T01:13:52;2.03;;;0.68;;
38053;SDS011;23859;50.672;7.164;2023-04-24T01:16:18;1.83;;;0.73;;
38053;SDS011;23859;50.672;7.164;2023-04-24T01:18:47;1.33;;;1.20;;
38053;SDS011;23859;50.672;7.164;2023-04-24T01:21:14;1.77;;;0.70;;
38053;SDS011;23859;50.672;7.164;2023-04-24T01:23:45;0.68;;;0.68;;
38053;SDS011;23859;50.672;7.164;2023-04-24T01:26:12;2.15;;;1.08;;
38053;SDS011;23859;50.672;7.164;2023-04-24T01:28:42;0.45;;;0.45;;
38053;SDS011;23859;50.672;7.164;2023-04-24T01:31:08;0.73;;;0.60;;
38053;SDS011;23859;50.672;7.164;2023-04-24T01:33:34;0.63;;;0.50;;
38053;SDS011;23859;50.672;7.164;2023-04-24T01:36:00;0.80;;;0.80;;
38053;SDS011;23859;50.672;7.164;2023-04-24T01:38:27;0.93;;;0.90;;
38053;SDS011;23859;50.672;7.164;2023-04-24T01:40:53;2.58;;;1.42;;
38053;SDS011;23859;50.672;7.164;2023-04-24T01:43:19;5.38;;;1.45;;
38053;SDS011;23859;50.672;7.164;2023-04-24T01:45:45;2.28;;;1.40;;
38053;SDS011;23859;50.672;7.164;2023-04-24T01:48:12;1.58;;;1.30;;
38053;SDS011;23859;50.672;7.164;2023-04-24T01:50:38;1.63;;;1.50;;
38053;SDS011;23859;50.672;7.164;2023-04-24T01:53:04;3.35;;;2.10;;
38053;SDS011;23859;50.672;7.164;2023-04-24T01:55:30;2.40;;;1.80;;
38053;SDS011;23859;50.672;7.164;2023-04-24T01:57:57;2.17;;;1.65;;
38053;SDS011;23859;50.672;7.164;2023-04-24T02:00:24;2.08;;;1.63;;
38053;SDS011;23859;50.672;7.164;2023-04-24T02:02:50;4.18;;;2.20;;
38053;SDS011;23859;50.672;7.164;2023-04-24T02:05:17;2.78;;;2.08;;
38053;SDS011;23859;50.672;7.164;2023-04-24T02:07:43;4.75;;;2.72;;
38053;SDS011;23859;50.672;7.164;2023-04-24T02:10:09;2.50;;;2.10;;
38053;SDS011;23859;50.672;7.164;2023-04-24T02:12:36;3.13;;;2.38;;
38053;SDS011;23859;50.672;7.164;2023-04-24T02:15:02;5.55;;;2.47;;
38053;SDS011;23859;50.672;7.164;2023-04-24T02:17:29;3.13;;;2.20;;
38053;SDS011;23859;50.672;7.164;2023-04-24T02:19:55;4.30;;;2.58;;
38053;SDS011;23859;50.672;7.164;2023-04-24T02:22:21;3.17;;;2.10;;
38053;SDS011;23859;50.672;7.164;2023-04-24T02:24:47;2.05;;;1.73;;
38053;SDS011;23859;50.672;7.164;2023-04-24T02:27:14;3.38;;;2.45;;
38053;SDS011;23859;50.672;7.164;2023-04-24T02:29:40;3.25;;;2.20;;
38053;SDS011;23859;50.672;7.164;2023-04-24T02:32:06;4.40;;;2.00;;
38053;SDS011;23859;50.672;7.164;2023-04-24T02:34:36;2.78;;;2.22;;
38053;SDS011;23859;50.672;7.164;2023-04-24T02:37:02;4.10;;;2.33;;
38053;SDS011;23859;50.672;7.164;2023-04-24T02:39:28;3.55;;;2.30;;
38053;SDS011;23859;50.672;7.164;2023-04-24T02:41:54;3.70;;;2.72;;
38053;SDS011;23859;50.672;7.164;2023-04-24T02:44:20;5.15;;;2.85;;
38053;SDS011;23859;50.672;7.164;2023-04-24T02:46:47;5.72;;;3.17;;
38053;SDS011;23859;50.672;7.164;2023-04-24T02:49:13;7.93;;;3.45;;
38053;SDS011;23859;50.672;7.164;2023-04-24T02:51:40;4.30;;;3.22;;
38053;SDS011;23859;50.672;7.164;2023-04-24T02:54:07;6.32;;;3.65;;
38053;SDS011;23859;50.672;7.164;2023-04-24T02:56:34;7.75;;;3.67;;
38053;SDS011;23859;50.672;7.164;2023-04-24T02:59:00;6.90;;;3.72;;
38053;SDS011;23859;50.672;7.164;2023-04-24T03:01:26;5.63;;;4.32;;
38053;SDS011;23859;50.672;7.164;2023-04-24T03:03:52;5.10;;;3.95;;
38053;SDS011;23859;50.672;7.164;2023-04-24T03:06:18;4.97;;;3.47;;
38053;SDS011;23859;50.672;7.164;2023-04-24T03:08:45;4.32;;;3.67;;
38053;SDS011;23859;50.672;7.164;2023-04-24T03:11:11;6.65;;;4.00;;
38053;SDS011;23859;50.672;7.164;2023-04-24T03:13:37;7.72;;;4.40;;
38053;SDS011;23859;50.672;7.164;2023-04-24T03:16:04;5.43;;;4.10;;
38053;SDS011;23859;50.672;7.164;2023-04-24T03:18:30;4.72;;;3.90;;
38053;SDS011;23859;50.672;7.164;2023-04-24T03:20:56;6.35;;;3.90;;
38053;SDS011;23859;50.672;7.164;2023-04-24T03:23:22;6.93;;;4.25;;
38053;SDS011;23859;50.672;7.164;2023-04-24T03:25:48;5.05;;;3.92;;
38053;SDS011;23859;50.672;7.164;2023-04-24T03:28:14;8.68;;;4.50;;
38053;SDS011;23859;50.672;7.164;2023-04-24T03:30:40;5.65;;;4.22;;
38053;SDS011;23859;50.672;7.164;2023-04-24T03:33:07;4.63;;;3.72;;
38053;SDS011;23859;50.672;7.164;2023-04-24T03:35:33;8.13;;;4.25;;
38053;SDS011;23859;50.672;7.164;2023-04-24T03:37:59;9.27;;;4.57;;
38053;SDS011;23859;50.672;7.164;2023-04-24T03:40:25;6.72;;;4.13;;
38053;SDS011;23859;50.672;7.164;2023-04-24T03:42:52;10.38;;;4.50;;
38053;SDS011;23859;50.672;7.164;2023-04-24T03:45:18;8.07;;;4.68;;
38053;SDS011;23859;50.672;7.164;2023-04-24T03:47:44;5.70;;;4.60;;
38053;SDS011;23859;50.672;7.164;2023-04-24T03:50:10;6.00;;;4.43;;
38053;SDS011;23859;50.672;7.164;2023-04-24T03:52:36;5.40;;;4.53;;
38053;SDS011;23859;50.672;7.164;2023-04-24T03:55:02;8.25;;;5.00;;
38053;SDS011;23859;50.672;7.164;2023-04-24T03:57:28;7.57;;;4.68;;
38053;SDS011;23859;50.672;7.164;2023-04-24T03:59:54;9.52;;;5.35;;
38053;SDS011;23859;50.672;7.164;2023-04-24T04:02:20;10.63;;;5.55;;
38053;SDS011;23859;50.672;7.164;2023-04-24T04:04:46;7.28;;;4.70;;
38053;SDS011;23859;50.672;7.164;2023-04-24T04:07:12;8.05;;;5.53;;
38053;SDS011;23859;50.672;7.164;2023-04-24T04:09:38;8.45;;;4.80;;
38053;SDS011;23859;50.672;7.164;2023-04-24T04:12:05;7.15;;;5.03;;
38053;SDS011;23859;50.672;7.164;2023-04-24T04:14:31;9.23;;;4.65;;
38053;SDS011;23859;50.672;7.164;2023-04-24T04:16:57;7.82;;;5.25;;
38053;SDS011;23859;50.672;7.164;2023-04-24T04:19:23;7.35;;;4.95;;
38053;SDS011;23859;50.672;7.164;2023-04-24T04:21:49;7.38;;;4.93;;
38053;SDS011;23859;50.672;7.164;2023-04-24T04:24:20;7.20;;;4.38;;
38053;SDS011;23859;50.672;7.164;2023-04-24T04:26:47;8.75;;;4.95;;
38053;SDS011;23859;50.672;7.164;2023-04-24T04:29:16;7.57;;;6.15;;
38053;SDS011;23859;50.672;7.164;2023-04-24T04:31:43;6.50;;;5.43;;
38053;SDS011;23859;50.672;7.164;2023-04-24T04:34:09;9.77;;;6.13;;
38053;SDS011;23859;50.672;7.164;2023-04-24T04:36:36;8.38;;;5.55;;
38053;SDS011;23859;50.672;7.164;2023-04-24T04:39:05;9.05;;;7.13;;
38053;SDS011;23859;50.672;7.164;2023-04-24T04:41:31;15.52;;;11.48;;
38053;SDS011;23859;50.672;7.164;2023-04-24T04:44:00;8.20;;;5.47;;
38053;SDS011;23859;50.672;7.164;2023-04-24T04:46:26;9.93;;;6.72;;
38053;SDS011;23859;50.672;7.164;2023-04-24T04:48:52;9.57;;;5.75;;
38053;SDS011;23859;50.672;7.164;2023-04-24T04:51:19;9.38;;;6.53;;
38053;SDS011;23859;50.672;7.164;2023-04-24T04:53:45;7.63;;;4.95;;
38053;SDS011;23859;50.672;7.164;2023-04-24T04:56:11;8.80;;;5.85;;
38053;SDS011;23859;50.672;7.164;2023-04-24T04:58:37;7.35;;;5.60;;
38053;SDS011;23859;50.672;7.164;2023-04-24T05:01:03;11.45;;;5.47;;
38053;SDS011;23859;50.672;7.164;2023-04-24T05:03:29;8.57;;;5.93;;
38053;SDS011;23859;50.672;7.164;2023-04-24T05:05:55;6.68;;;5.47;;
38053;SDS011;23859;50.672;7.164;2023-04-24T05:08:23;7.15;;;5.80;;
38053;SDS011;23859;50.672;7.164;2023-04-24T05:10:49;8.23;;;5.53;;
38053;SDS011;23859;50.672;7.164;2023-04-24T05:13:15;7.57;;;5.38;;
38053;SDS011;23859;50.672;7.164;2023-04-24T05:15:41;6.75;;;5.53;;
38053;SDS011;23859;50.672;7.164;2023-04-24T05:18:07;10.25;;;5.82;;
38053;SDS011;23859;50.672;7.164;2023-04-24T05:20:33;8.45;;;5.40;;
38053;SDS011;23859;50.672;7.164;2023-04-24T05:22:59;8.57;;;5.28;;
38053;SDS011;23859;50.672;7.164;2023-04-24T05:25:25;9.23;;;5.82;;
38053;SDS011;23859;50.672;7.164;2023-04-24T05:27:51;10.98;;;5.40;;
38053;SDS011;23859;50.672;7.164;2023-04-24T05:30:18;12.88;;;6.07;;
38053;SDS011;23859;50.672;7.164;2023-04-24T05:32:44;8.38;;;4.85;;
38053;SDS011;23859;50.672;7.164;2023-04-24T05:35:11;8.93;;;6.07;;
38053;SDS011;23859;50.672;7.164;2023-04-24T05:37:37;10.88;;;5.60;;
38053;SDS011;23859;50.672;7.164;2023-04-24T05:40:03;9.07;;;6.10;;
38053;SDS011;23859;50.672;7.164;2023-04-24T05:42:30;12.02;;;6.55;;
38053;SDS011;23859;50.672;7.164;2023-04-24T05:44:56;10.40;;;6.40;;
38053;SDS011;23859;50.672;7.164;2023-04-24T05:47:22;9.18;;;5.95;;
38053;SDS011;23859;50.672;7.164;2023-04-24T05:49:48;10.40;;;6.50;;
38053;SDS011;23859;50.672;7.164;2023-04-24T05:52:14;13.43;;;6.55;;
38053;SDS011;23859;50.672;7.164;2023-04-24T05:54:40;10.57;;;6.18;;
38053;SDS011;23859;50.672;7.164;2023-04-24T05:57:07;11.88;;;5.88;;
38053;SDS011;23859;50.672;7.164;2023-04-24T05:59:41;10.15;;;6.20;;
38053;SDS011;23859;50.672;7.164;2023-04-24T06:02:07;9.13;;;5.90;;
38053;SDS011;23859;50.672;7.164;2023-04-24T06:04:33;15.77;;;6.25;;
38053;SDS011;23859;50.672;7.164;2023-04-24T06:06:59;7.43;;;5.65;;
38053;SDS011;23859;50.672;7.164;2023-04-24T06:09:25;8.73;;;6.35;;
38053;SDS011;23859;50.672;7.164;2023-04-24T06:11:51;7.60;;;5.97;;
38053;SDS011;23859;50.672;7.164;2023-04-24T06:14:18;10.93;;;6.40;;
38053;SDS011;23859;50.672;7.164;2023-04-24T06:16:44;13.18;;;6.55;;
38053;SDS011;23859;50.672;7.164;2023-04-24T06:19:10;8.60;;;5.65;;
38053;SDS011;23859;50.672;7.164;2023-04-24T06:21:37;10.43;;;6.43;;
38053;SDS011;23859;50.672;7.164;2023-04-24T06:24:03;9.52;;;6.35;;
38053;SDS011;23859;50.672;7.164;2023-04-24T06:26:31;14.65;;;7.25;;
38053;SDS011;23859;50.672;7.164;2023-04-24T06:28:58;10.95;;;6.47;;
38053;SDS011;23859;50.672;7.164;2023-04-24T06:31:25;10.10;;;6.93;;
38053;SDS011;23859;50.672;7.164;2023-04-24T06:33:51;12.02;;;6.50;;
38053;SDS011;23859;50.672;7.164;2023-04-24T06:36:17;10.48;;;6.47;;
38053;SDS011;23859;50.672;7.164;2023-04-24T06:38:43;11.73;;;6.72;;
38053;SDS011;23859;50.672;7.164;2023-04-24T06:41:09;11.75;;;6.15;;
38053;SDS011;23859;50.672;7.164;2023-04-24T06:43:36;10.50;;;6.05;;
38053;SDS011;23859;50.672;7.164;2023-04-24T06:46:02;11.15;;;6.90;;
38053;SDS011;23859;50.672;7.164;2023-04-24T06:48:28;14.80;;;8.20;;
38053;SDS011;23859;50.672;7.164;2023-04-24T06:50:54;9.80;;;6.50;;
38053;SDS011;23859;50.672;7.164;2023-04-24T06:53:20;9.35;;;5.63;;
38053;SDS011;23859;50.672;7.164;2023-04-24T06:55:46;7.90;;;5.82;;
38053;SDS011;23859;50.672;7.164;2023-04-24T06:58:13;14.02;;;6.25;;
38053;SDS011;23859;50.672;7.164;2023-04-24T07:00:40;9.32;;;5.18;;
38053;SDS011;23859;50.672;7.164;2023-04-24T07:03:06;7.43;;;5.60;;
38053;SDS011;23859;50.672;7.164;2023-04-24T07:05:32;9.52;;;6.60;;
38053;SDS011;23859;50.672;7.164;2023-04-24T07:08:02;9.07;;;5.63;;
38053;SDS011;23859;50.672;7.164;2023-04-24T07:10:28;8.13;;;5.45;;
38053;SDS011;23859;50.672;7.164;2023-04-24T07:12:55;8.10;;;5.13;;
38053;SDS011;23859;50.672;7.164;2023-04-24T07:15:21;8.32;;;5.10;;
38053;SDS011;23859;50.672;7.164;2023-04-24T07:17:48;8.02;;;5.75;;
38053;SDS011;23859;50.672;7.164;2023-04-24T07:20:14;6.20;;;4.60;;
38053;SDS011;23859;50.672;7.164;2023-04-24T07:22:41;7.15;;;5.22;;
38053;SDS011;23859;50.672;7.164;2023-04-24T07:25:08;11.75;;;5.78;;
38053;SDS011;23859;50.672;7.164;2023-04-24T07:27:34;8.95;;;5.00;;
38053;SDS011;23859;50.672;7.164;2023-04-24T07:30:01;5.65;;;4.45;;
38053;SDS011;23859;50.672;7.164;2023-04-24T07:32:28;8.27;;;4.65;;
38053;SDS011;23859;50.672;7.164;2023-04-24T07:34:55;4.57;;;4.07;;
38053;SDS011;23859;50.672;7.164;2023-04-24T07:37:21;6.45;;;3.33;;
38053;SDS011;23859;50.672;7.164;2023-04-24T07:39:47;4.05;;;3.15;;
38053;SDS011;23859;50.672;7.164;2023-04-24T07:42:13;9.57;;;3.55;;
38053;SDS011;23859;50.672;7.164;2023-04-24T07:44:39;9.32;;;3.13;;
38053;SDS011;23859;50.672;7.164;2023-04-24T07:47:05;2.72;;;2.40;;
38053;SDS011;23859;50.672;7.164;2023-04-24T07:49:32;4.43;;;2.80;;
38053;SDS011;23859;50.672;7.164;2023-04-24T07:51:59;3.65;;;2.15;;
38053;SDS011;23859;50.672;7.164;2023-04-24T07:54:27;3.88;;;2.28;;
38053;SDS011;23859;50.672;7.164;2023-04-24T07:56:53;5.75;;;3.00;;
38053;SDS011;23859;50.672;7.164;2023-04-24T07:59:20;3.58;;;2.40;;
38053;SDS011;23859;50.672;7.164;2023-04-24T08:01:46;4.05;;;2.05;;
38053;SDS011;23859;50.672;7.164;2023-04-24T08:04:12;3.13;;;2.22;;
38053;SDS011;23859;50.672;7.164;2023-04-24T08:06:38;2.22;;;2.00;;
38053;SDS011;23859;50.672;7.164;2023-04-24T08:09:04;3.28;;;2.30;;
38053;SDS011;23859;50.672;7.164;2023-04-24T08:11:30;6.68;;;3.00;;
38053;SDS011;23859;50.672;7.164;2023-04-24T08:13:56;6.07;;;2.97;;
38053;SDS011;23859;50.672;7.164;2023-04-24T08:16:22;2.72;;;2.03;;
38053;SDS011;23859;50.672;7.164;2023-04-24T08:18:49;3.58;;;2.28;;
38053;SDS011;23859;50.672;7.164;2023-04-24T08:21:15;5.22;;;1.65;;
38053;SDS011;23859;50.672;7.164;2023-04-24T08:23:43;4.00;;;1.90;;
38053;SDS011;23859;50.672;7.164;2023-04-24T08:26:10;2.65;;;1.58;;
38053;SDS011;23859;50.672;7.164;2023-04-24T08:28:37;3.70;;;1.60;;
38053;SDS011;23859;50.672;7.164;2023-04-24T08:31:03;3.65;;;1.55;;
38053;SDS011;23859;50.672;7.164;2023-04-24T08:33:30;2.20;;;1.50;;
38053;SDS011;23859;50.672;7.164;2023-04-24T08:35:59;1.90;;;1.50;;
38053;SDS011;23859;50.672;7.164;2023-04-24T08:38:29;3.28;;;1.63;;
38053;SDS011;23859;50.672;7.164;2023-04-24T08:40:57;2.10;;;1.30;;
38053;SDS011;23859;50.672;7.164;2023-04-24T08:43:25;3.30;;;1.40;;
38053;SDS011;23859;50.672;7.164;2023-04-24T08:45:51;1.30;;;1.20;;
38053;SDS011;23859;50.672;7.164;2023-04-24T08:48:20;5.53;;;1.50;;
38053;SDS011;23859;50.672;7.164;2023-04-24T08:50:48;3.80;;;1.45;;
38053;SDS011;23859;50.672;7.164;2023-04-24T08:53:17;1.90;;;1.63;;
38053;SDS011;23859;50.672;7.164;2023-04-24T08:55:45;2.97;;;2.08;;
38053;SDS011;23859;50.672;7.164;2023-04-24T08:58:13;3.47;;;2.15;;
38053;SDS011;23859;50.672;7.164;2023-04-24T09:00:41;5.10;;;2.70;;
38053;SDS011;23859;50.672;7.164;2023-04-24T09:03:11;5.72;;;3.00;;
38053;SDS011;23859;50.672;7.164;2023-04-24T09:05:40;4.18;;;2.83;;
38053;SDS011;23859;50.672;7.164;2023-04-24T09:08:10;5.30;;;2.90;;
38053;SDS011;23859;50.672;7.164;2023-04-24T09:10:38;4.38;;;3.00;;
38053;SDS011;23859;50.672;7.164;2023-04-24T09:13:05;3.95;;;3.10;;
38053;SDS011;23859;50.672;7.164;2023-04-24T09:15:34;4.20;;;3.33;;
38053;SDS011;23859;50.672;7.164;2023-04-24T09:18:01;4.55;;;3.65;;
38053;SDS011;23859;50.672;7.164;2023-04-24T09:20:27;4.95;;;3.50;;
38053;SDS011;23859;50.672;7.164;2023-04-24T09:22:54;5.70;;;4.30;;
38053;SDS011;23859;50.672;7.164;2023-04-24T09:25:21;10.85;;;4.43;;
38053;SDS011;23859;50.672;7.164;2023-04-24T09:27:47;5.22;;;3.30;;
38053;SDS011;23859;50.672;7.164;2023-04-24T09:30:13;4.97;;;3.15;;
38053;SDS011;23859;50.672;7.164;2023-04-24T09:32:47;5.50;;;3.25;;
38053;SDS011;23859;50.672;7.164;2023-04-24T09:35:14;4.18;;;2.85;;
38053;SDS011;23859;50.672;7.164;2023-04-24T09:37:42;5.07;;;3.00;;
38053;SDS011;23859;50.672;7.164;2023-04-24T09:40:14;3.40;;;2.92;;
38053;SDS011;23859;50.672;7.164;2023-04-24T09:42:56;4.57;;;2.30;;
38053;SDS011;23859;50.672;7.164;2023-04-24T09:45:28;4.10;;;2.30;;
38053;SDS011;23859;50.672;7.164;2023-04-24T09:48:01;3.25;;;2.33;;
38053;SDS011;23859;50.672;7.164;2023-04-24T09:50:29;3.55;;;2.15;;
38053;SDS011;23859;50.672;7.164;2023-04-24T09:52:58;3.67;;;2.60;;
38053;SDS011;23859;50.672;7.164;2023-04-24T09:55:28;4.30;;;2.17;;
38053;SDS011;23859;50.672;7.164;2023-04-24T09:57:56;3.20;;;2.30;;
38053;SDS011;23859;50.672;7.164;2023-04-24T10:00:25;3.08;;;2.40;;
38053;SDS011;23859;50.672;7.164;2023-04-24T10:05:27;3.97;;;3.05;;
38053;SDS011;23859;50.672;7.164;2023-04-24T10:08:01;6.53;;;3.42;;
38053;SDS011;23859;50.672;7.164;2023-04-24T10:10:28;5.07;;;3.55;;
38053;SDS011;23859;50.672;7.164;2023-04-24T10:12:54;7.88;;;4.43;;
38053;SDS011;23859;50.672;7.164;2023-04-24T10:15:21;5.60;;;3.92;;
38053;SDS011;23859;50.672;7.164;2023-04-24T10:17:48;7.60;;;4.85;;
38053;SDS011;23859;50.672;7.164;2023-04-24T10:20:18;6.18;;;4.00;;
38053;SDS011;23859;50.672;7.164;2023-04-24T10:22:46;7.57;;;4.15;;
38053;SDS011;23859;50.672;7.164;2023-04-24T10:25:16;7.30;;;4.30;;
38053;SDS011;23859;50.672;7.164;2023-04-24T10:27:46;4.82;;;3.95;;
38053;SDS011;23859;50.672;7.164;2023-04-24T10:30:14;7.70;;;4.28;;
38053;SDS011;23859;50.672;7.164;2023-04-24T10:32:40;8.93;;;4.57;;
38053;SDS011;23859;50.672;7.164;2023-04-24T10:35:07;7.18;;;4.75;;
38053;SDS011;23859;50.672;7.164;2023-04-24T10:37:38;9.48;;;4.30;;
38053;SDS011;23859;50.672;7.164;2023-04-24T10:40:07;8.25;;;4.43;;
38053;SDS011;23859;50.672;7.164;2023-04-24T10:42:35;7.40;;;4.47;;
38053;SDS011;23859;50.672;7.164;2023-04-24T10:45:05;11.15;;;4.47;;
38053;SDS011;23859;50.672;7.164;2023-04-24T10:47:40;7.18;;;4.13;;
38053;SDS011;23859;50.672;7.164;2023-04-24T10:50:08;9.38;;;4.68;;
38053;SDS011;23859;50.672;7.164;2023-04-24T10:52:48;11.95;;;5.10;;
38053;SDS011;23859;50.672;7.164;2023-04-24T10:58:04;9.98;;;4.75;;
38053;SDS011;23859;50.672;7.164;2023-04-24T11:00:30;15.30;;;6.32;;
38053;SDS011;23859;50.672;7.164;2023-04-24T11:02:56;11.80;;;6.28;;
38053;SDS011;23859;50.672;7.164;2023-04-24T11:05:23;12.38;;;5.97;;
38053;SDS011;23859;50.672;7.164;2023-04-24T11:08:26;10.55;;;5.45;;
38053;SDS011;23859;50.672;7.164;2023-04-24T11:11:02;11.57;;;5.63;;
38053;SDS011;23859;50.672;7.164;2023-04-24T11:16:21;8.95;;;5.57;;
38053;SDS011;23859;50.672;7.164;2023-04-24T11:19:02;10.90;;;4.95;;
38053;SDS011;23859;50.672;7.164;2023-04-24T11:21:32;9.55;;;4.35;;
38053;SDS011;23859;50.672;7.164;2023-04-24T11:24:28;6.28;;;3.63;;
38053;SDS011;23859;50.672;7.164;2023-04-24T11:27:17;7.53;;;3.85;;
38053;SDS011;23859;50.672;7.164;2023-04-24T11:34:49;11.32;;;4.47;;
38053;SDS011;23859;50.672;7.164;2023-04-24T11:37:16;9.18;;;5.05;;
38053;SDS011;23859;50.672;7.164;2023-04-24T11:39:43;10.15;;;5.63;;
38053;SDS011;23859;50.672;7.164;2023-04-24T11:42:09;9.82;;;5.63;;
38053;SDS011;23859;50.672;7.164;2023-04-24T11:44:35;8.38;;;5.85;;
38053;SDS011;23859;50.672;7.164;2023-04-24T11:47:05;13.23;;;5.47;;
38053;SDS011;23859;50.672;7.164;2023-04-24T11:49:37;10.85;;;5.30;;
38053;SDS011;23859;50.672;7.164;2023-04-24T11:52:03;11.70;;;5.57;;
38053;SDS011;23859;50.672;7.164;2023-04-24T11:54:30;9.98;;;4.60;;
38053;SDS011;23859;50.672;7.164;2023-04-24T11:56:56;8.05;;;4.53;;
38053;SDS011;23859;50.672;7.164;2023-04-24T11:59:22;15.75;;;4.75;;
38053;SDS011;23859;50.672;7.164;2023-04-24T12:01:49;8.18;;;5.00;;
38053;SDS011;23859;50.672;7.164;2023-04-24T12:04:16;14.05;;;5.30;;
38053;SDS011;23859;50.672;7.164;2023-04-24T12:07:15;7.13;;;4.70;;
38053;SDS011;23859;50.672;7.164;2023-04-24T12:09:44;9.95;;;5.38;;
38053;SDS011;23859;50.672;7.164;2023-04-24T12:12:31;13.60;;;5.18;;
38053;SDS011;23859;50.672;7.164;2023-04-24T12:14:57;10.15;;;6.30;;
38053;SDS011;23859;50.672;7.164;2023-04-24T12:17:30;12.05;;;5.60;;
38053;SDS011;23859;50.672;7.164;2023-04-24T12:22:25;14.25;;;6.15;;
38053;SDS011;23859;50.672;7.164;2023-04-24T12:24:57;15.52;;;6.13;;
38053;SDS011;23859;50.672;7.164;2023-04-24T12:27:25;12.25;;;6.32;;
38053;SDS011;23859;50.672;7.164;2023-04-24T12:29:57;8.90;;;5.68;;
38053;SDS011;23859;50.672;7.164;2023-04-24T12:32:24;10.85;;;6.82;;
38053;SDS011;23859;50.672;7.164;2023-04-24T12:34:51;15.18;;;6.53;;
38053;SDS011;23859;50.672;7.164;2023-04-24T12:37:18;11.32;;;7.10;;
38053;SDS011;23859;50.672;7.164;2023-04-24T12:39:57;14.05;;;7.38;;
38053;SDS011;23859;50.672;7.164;2023-04-24T12:42:29;15.30;;;7.90;;
38053;SDS011;23859;50.672;7.164;2023-04-24T12:44:56;16.10;;;7.55;;
38053;SDS011;23859;50.672;7.164;2023-04-24T12:47:24;10.00;;;6.35;;
38053;SDS011;23859;50.672;7.164;2023-04-24T12:49:50;8.70;;;6.07;;
38053;SDS011;23859;50.672;7.164;2023-04-24T12:52:17;13.20;;;6.70;;
38053;SDS011;23859;50.672;7.164;2023-04-24T12:54:45;9.00;;;6.43;;
38053;SDS011;23859;50.672;7.164;2023-04-24T12:57:11;10.80;;;7.05;;
38053;SDS011;23859;50.672;7.164;2023-04-24T12:59:37;15.80;;;8.30;;
38053;SDS011;23859;50.672;7.164;2023-04-24T13:02:04;13.13;;;6.78;;
38053;SDS011;23859;50.672;7.164;2023-04-24T13:04:31;9.80;;;6.78;;
38053;SDS011;23859;50.672;7.164;2023-04-24T13:06:57;12.95;;;7.75;;
38053;SDS011;23859;50.672;7.164;2023-04-24T13:09:23;12.27;;;6.93;;
38053;SDS011;23859;50.672;7.164;2023-04-24T13:11:49;11.88;;;6.93;;
38053;SDS011;23859;50.672;7.164;2023-04-24T13:14:15;12.80;;;7.82;;
38053;SDS011;23859;50.672;7.164;2023-04-24T13:16:41;10.95;;;7.13;;
38053;SDS011;23859;50.672;7.164;2023-04-24T13:19:08;13.65;;;7.70;;
38053;SDS011;23859;50.672;7.164;2023-04-24T13:21:34;19.52;;;7.18;;
38053;SDS011;23859;50.672;7.164;2023-04-24T13:24:00;12.70;;;6.47;;
38053;SDS011;23859;50.672;7.164;2023-04-24T13:26:26;9.55;;;5.78;;
38053;SDS011;23859;50.672;7.164;2023-04-24T13:28:52;10.73;;;5.72;;
38053;SDS011;23859;50.672;7.164;2023-04-24T13:31:18;8.95;;;5.43;;
38053;SDS011;23859;50.672;7.164;2023-04-24T13:33:44;7.68;;;5.38;;
38053;SDS011;23859;50.672;7.164;2023-04-24T13:36:10;7.80;;;5.32;;
38053;SDS011;23859;50.672;7.164;2023-04-24T13:38:36;8.07;;;4.90;;
38053;SDS011;23859;50.672;7.164;2023-04-24T13:41:02;12.15;;;4.90;;
38053;SDS011;23859;50.672;7.164;2023-04-24T13:43:28;6.95;;;4.35;;
38053;SDS011;23859;50.672;7.164;2023-04-24T13:45:54;13.07;;;4.88;;
38053;SDS011;23859;50.672;7.164;2023-04-24T13:48:21;10.93;;;5.25;;
38053;SDS011;23859;50.672;7.164;2023-04-24T13:50:47;12.43;;;5.22;;
38053;SDS011;23859;50.672;7.164;2023-04-24T13:53:14;10.45;;;5.20;;
38053;SDS011;23859;50.672;7.164;2023-04-24T13:55:40;10.23;;;5.00;;
38053;SDS011;23859;50.672;7.164;2023-04-24T13:58:06;9.25;;;5.07;;
38053;SDS011;23859;50.672;7.164;2023-04-24T14:00:32;9.23;;;4.40;;
38053;SDS011;23859;50.672;7.164;2023-04-24T14:02:58;6.40;;;4.65;;
38053;SDS011;23859;50.672;7.164;2023-04-24T14:05:25;11.73;;;4.68;;
38053;SDS011;23859;50.672;7.164;2023-04-24T14:07:51;8.63;;;4.80;;
38053;SDS011;23859;50.672;7.164;2023-04-24T14:10:17;7.30;;;4.30;;
38053;SDS011;23859;50.672;7.164;2023-04-24T14:12:43;7.78;;;4.55;;
38053;SDS011;23859;50.672;7.164;2023-04-24T14:15:10;8.45;;;4.85;;
38053;SDS011;23859;50.672;7.164;2023-04-24T14:17:38;7.55;;;3.63;;
38053;SDS011;23859;50.672;7.164;2023-04-24T14:20:04;8.75;;;5.75;;
38053;SDS011;23859;50.672;7.164;2023-04-24T14:22:31;7.57;;;4.65;;
38053;SDS011;23859;50.672;7.164;2023-04-24T14:24:58;9.35;;;4.18;;
38053;SDS011;23859;50.672;7.164;2023-04-24T14:27:24;6.55;;;4.60;;
38053;SDS011;23859;50.672;7.164;2023-04-24T14:29:51;10.13;;;4.40;;
38053;SDS011;23859;50.672;7.164;2023-04-24T14:32:17;7.53;;;4.90;;
38053;SDS011;23859;50.672;7.164;2023-04-24T14:34:43;9.10;;;4.57;;
38053;SDS011;23859;50.672;7.164;2023-04-24T14:37:09;7.25;;;4.78;;
38053;SDS011;23859;50.672;7.164;2023-04-24T14:39:35;9.57;;;4.53;;
38053;SDS011;23859;50.672;7.164;2023-04-24T14:42:01;13.00;;;4.95;;
38053;SDS011;23859;50.672;7.164;2023-04-24T14:44:28;8.10;;;5.10;;
38053;SDS011;23859;50.672;7.164;2023-04-24T14:46:54;13.00;;;5.30;;
38053;SDS011;23859;50.672;7.164;2023-04-24T14:49:20;11.73;;;4.90;;
38053;SDS011;23859;50.672;7.164;2023-04-24T14:51:46;11.18;;;5.90;;
38053;SDS011;23859;50.672;7.164;2023-04-24T14:54:12;13.80;;;5.47;;
38053;SDS011;23859;50.672;7.164;2023-04-24T14:56:38;13.60;;;5.72;;
38053;SDS011;23859;50.672;7.164;2023-04-24T14:59:05;9.85;;;5.70;;
38053;SDS011;23859;50.672;7.164;2023-04-24T15:01:32;16.27;;;6.43;;